Terminal Aerodrome Forecast
Issued by NWS

Home | Current Version | Previous Version | Text Only | Print | Product List | Glossary On
Versions: 1 2 3 4 5 6 7 8 9 10 11 12 13 14 15 16 17 18 19 20 21 22 23 24 25 26 27 28 29 30
000
FTUS44 KOUN 270525
TAFLAW
TAF
KLAW 270525Z 2706/2806 03016G25KT P6SM SCT015 BKN100
     FM270900 04017G26KT 4SM RA BR OVC012
      TEMPO 2709/2712 2SM -TSRA BR OVC007CB
     FM272000 03016G24KT 3SM RA BR OVC007=

USA.gov is the U.S. government's official web portal to all federal, state and local government web resources and services.